Time;durP1;ratioP1;P1;durP2;ratioP2;P2;SDS_P1;SDS_P2;PMS_P1;PMS_P2;Temp;Humidity;BMP_temperature;BMP_pressure;BME280_temperature;BME280_humidity;BME280_pressure;Samples;Min_cycle;Max_cycle;Signal;HPM_P1;HPM_P2
2021/04/22 00:00:08;;;;;;;12.03;9.40;;;10.40;91.60;;;;;;4921870;29;20470;-84
2021/04/22 00:02:35;;;;;;;10.47;9.53;;;10.30;91.90;;;;;;4921726;29;20453;-84
2021/04/22 00:05:01;;;;;;;10.60;9.37;;;10.30;92.40;;;;;;4921321;29;20449;-84
2021/04/22 00:07:29;;;;;;;10.33;9.17;;;10.30;92.60;;;;;;4921177;29;20503;-84
2021/04/22 00:09:57;;;;;;;10.43;8.77;;;10.10;93.10;;;;;;4922180;29;20440;-83
2021/04/22 00:12:23;;;;;;;9.77;8.77;;;10.10;93.60;;;;;;4922289;29;20511;-84
2021/04/22 00:14:49;;;;;;;9.67;8.67;;;10.00;93.90;;;;;;4922131;29;20456;-84
2021/04/22 00:17:17;;;;;;;11.00;9.67;;;10.00;94.40;;;;;;4921255;29;20481;-84
2021/04/22 00:19:44;;;;;;;10.63;9.52;;;9.90;95.30;;;;;;4921310;29;20438;-84
2021/04/22 00:22:10;;;;;;;14.13;10.40;;;10.00;95.10;;;;;;4922041;29;20212;-84
2021/04/22 00:24:37;;;;;;;11.63;9.50;;;10.00;95.50;;;;;;4921717;29;20484;-84
2021/04/22 00:27:04;;;;;;;10.43;9.27;;;10.00;95.80;;;;;;4921166;29;20272;-84
2021/04/22 00:29:30;;;;;;;10.18;9.15;;;10.00;95.90;;;;;;4921078;29;20465;-84
2021/04/22 00:31:56;;;;;;;9.20;8.20;;;10.00;95.80;;;;;;4921649;29;20232;-84
2021/04/22 00:34:22;;;;;;;12.97;11.73;;;10.10;95.90;;;;;;4922569;29;20553;-84
2021/04/22 00:36:48;;;;;;;11.70;10.50;;;10.20;96.00;;;;;;4920560;29;20875;-84
2021/04/22 00:39:15;;;;;;;11.80;9.90;;;10.30;95.60;;;;;;4921408;29;20488;-84
2021/04/22 00:41:42;;;;;;;11.52;10.40;;;10.40;95.50;;;;;;4920556;29;20455;-84
2021/04/22 00:44:10;;;;;;;12.70;10.97;;;10.50;95.50;;;;;;4921441;29;20241;-84
2021/04/22 00:46:39;;;;;;;10.50;9.30;;;10.50;95.30;;;;;;4921636;29;20466;-84
2021/04/22 00:49:05;;;;;;;9.70;8.50;;;10.60;95.40;;;;;;4934271;28;20513;-83
2021/04/22 00:51:32;;;;;;;11.43;10.33;;;10.60;95.40;;;;;;4943867;28;20481;-82
2021/04/22 00:53:58;;;;;;;9.57;8.73;;;10.70;95.40;;;;;;4943772;28;20504;-82
2021/04/22 00:56:25;;;;;;;12.70;11.33;;;10.70;95.20;;;;;;4944094;28;20448;-82
2021/04/22 00:58:52;;;;;;;12.33;10.40;;;10.80;95.00;;;;;;4942737;28;20556;-84
2021/04/22 01:01:18;;;;;;;10.90;9.80;;;10.80;95.10;;;;;;4925977;29;20453;-84
2021/04/22 01:03:45;;;;;;;10.60;9.60;;;10.80;95.10;;;;;;4924781;29;20524;-84
2021/04/22 01:06:12;;;;;;;11.47;10.03;;;10.80;95.20;;;;;;4924599;29;20448;-83
2021/04/22 01:08:38;;;;;;;14.87;10.90;;;10.80;95.30;;;;;;4924001;29;20986;-84
2021/04/22 01:11:06;;;;;;;13.27;11.90;;;10.80;95.60;;;;;;4924287;29;20563;-84
2021/04/22 01:13:32;;;;;;;12.53;11.23;;;10.90;96.10;;;;;;4924176;29;20456;-84
2021/04/22 01:15:59;;;;;;;14.20;12.77;;;11.00;96.50;;;;;;4924457;29;20492;-84
2021/04/22 01:18:26;;;;;;;12.80;11.60;;;11.10;96.70;;;;;;4924108;29;20488;-84
2021/04/22 01:20:53;;;;;;;16.03;12.77;;;11.20;97.20;;;;;;4924341;29;20480;-84
2021/04/22 01:23:20;;;;;;;16.40;13.07;;;11.40;97.80;;;;;;4923989;29;20465;-84
2021/04/22 01:25:48;;;;;;;16.77;15.00;;;11.40;97.60;;;;;;4924632;29;20472;-84
2021/04/22 01:28:16;;;;;;;15.50;13.90;;;11.40;97.50;;;;;;4924315;29;20481;-84
2021/04/22 01:30:45;;;;;;;13.67;12.27;;;11.40;97.50;;;;;;4923757;29;20471;-84
2021/04/22 01:33:13;;;;;;;14.57;13.00;;;11.20;98.20;;;;;;4923825;29;20461;-84
2021/04/22 01:35:42;;;;;;;15.87;14.17;;;11.10;99.10;;;;;;4924402;29;20840;-84
2021/04/22 01:38:10;;;;;;;14.23;12.73;;;11.10;99.80;;;;;;4923874;29;20491;-84
2021/04/22 01:40:39;;;;;;;15.30;13.73;;;11.10;99.90;;;;;;4924328;29;20460;-84
2021/04/22 01:43:05;;;;;;;16.93;15.07;;;11.20;99.90;;;;;;4923369;29;20468;-84
2021/04/22 01:45:32;;;;;;;14.60;13.20;;;11.10;99.90;;;;;;4923518;29;20444;-84
2021/04/22 01:48:00;;;;;;;15.87;14.20;;;11.20;99.90;;;;;;4923961;29;20484;-84
2021/04/22 01:50:29;;;;;;;17.17;15.53;;;11.10;99.90;;;;;;4923573;29;20457;-84
2021/04/22 01:52:56;;;;;;;17.93;16.07;;;11.10;99.90;;;;;;4923364;29;20497;-84
2021/04/22 01:55:25;;;;;;;15.70;13.97;;;11.00;99.90;;;;;;4923390;29;20475;-84
2021/04/22 01:57:53;;;;;;;15.80;14.13;;;11.00;99.90;;;;;;4923587;29;20592;-84
2021/04/22 02:00:23;;;;;;;18.50;14.73;;;11.20;99.90;;;;;;4922503;29;20455;-84
2021/04/22 02:02:49;;;;;;;16.93;15.13;;;11.10;99.90;;;;;;4923469;29;20513;-84
2021/04/22 02:05:16;;;;;;;16.30;14.53;;;11.00;99.90;;;;;;4923570;29;20462;-83
2021/04/22 02:07:42;;;;;;;16.10;14.50;;;11.10;99.90;;;;;;4923371;29;20509;-84
2021/04/22 02:10:10;;;;;;;16.30;13.80;;;11.10;99.90;;;;;;4923853;29;20508;-84
2021/04/22 02:12:36;;;;;;;16.93;15.00;;;11.20;99.90;;;;;;4922772;29;20491;-84
2021/04/22 02:15:05;;;;;;;18.57;15.80;;;11.10;99.90;;;;;;4923268;29;21019;-84
2021/04/22 02:17:32;;;;;;;17.63;15.83;;;11.00;99.90;;;;;;4922767;29;20505;-83
2021/04/22 02:19:58;;;;;;;17.30;15.47;;;11.00;99.90;;;;;;4922764;29;20460;-84
2021/04/22 02:22:24;;;;;;;16.30;14.60;;;11.00;99.90;;;;;;4922840;29;20493;-83
2021/04/22 02:24:51;;;;;;;15.70;14.10;;;11.10;99.90;;;;;;4923146;29;20544;-83
2021/04/22 02:27:17;;;;;;;17.83;14.00;;;11.10;99.90;;;;;;4922548;29;20480;-83
2021/04/22 02:29:43;;;;;;;16.90;15.03;;;11.10;99.90;;;;;;4922652;29;20460;-83
2021/04/22 02:32:11;;;;;;;17.50;15.80;;;11.10;99.90;;;;;;4922168;29;20495;-83
2021/04/22 02:34:38;;;;;;;16.80;15.30;;;11.10;99.90;;;;;;4922086;29;20491;-84
2021/04/22 02:37:05;;;;;;;19.17;16.70;;;11.00;99.90;;;;;;4922116;29;20945;-83
2021/04/22 02:39:31;;;;;;;20.67;18.50;;;11.00;99.90;;;;;;4922717;29;20471;-83
2021/04/22 02:41:57;;;;;;;22.23;17.67;;;11.00;99.90;;;;;;4922594;29;20531;-84
2021/04/22 02:44:23;;;;;;;23.57;21.07;;;10.90;99.90;;;;;;4923177;29;20458;-83
2021/04/22 02:46:49;;;;;;;25.60;20.73;;;10.80;99.90;;;;;;4922091;29;20453;-83
2021/04/22 02:49:17;;;;;;;23.70;21.30;;;10.70;99.90;;;;;;4923030;29;20465;-83
2021/04/22 02:51:43;;;;;;;27.10;22.30;;;10.60;99.90;;;;;;4922325;29;20502;-83
2021/04/22 02:54:09;;;;;;;24.07;21.10;;;10.60;99.90;;;;;;4922654;29;20515;-83
2021/04/22 02:56:35;;;;;;;27.40;24.40;;;10.60;99.90;;;;;;4922296;29;20491;-83
2021/04/22 02:59:02;;;;;;;33.47;24.63;;;10.50;99.90;;;;;;4922474;29;20508;-83
2021/04/22 03:01:28;;;;;;;25.43;22.53;;;10.60;99.90;;;;;;4922567;29;20460;-83
2021/04/22 03:03:54;;;;;;;29.07;25.47;;;10.60;99.90;;;;;;4922216;29;20472;-83
2021/04/22 03:06:21;;;;;;;25.93;22.97;;;10.50;99.90;;;;;;4921578;29;20457;-83
2021/04/22 03:08:47;;;;;;;25.70;20.80;;;10.40;99.90;;;;;;4922390;29;20499;-83
2021/04/22 03:11:14;;;;;;;28.47;22.87;;;10.40;99.90;;;;;;4920851;29;20500;-83
2021/04/22 03:13:41;;;;;;;29.93;23.80;;;10.40;99.90;;;;;;4921866;29;20487;-83
2021/04/22 03:16:07;;;;;;;26.87;22.17;;;10.50;99.90;;;;;;4923167;29;20458;-84
2021/04/22 03:18:33;;;;;;;28.23;24.73;;;10.40;99.90;;;;;;4922383;29;20493;-83
2021/04/22 03:21:00;;;;;;;32.03;24.97;;;10.40;99.90;;;;;;4922704;29;20468;-84
2021/04/22 03:23:27;;;;;;;32.80;26.33;;;10.30;99.90;;;;;;4922999;29;20468;-84
2021/04/22 03:25:53;;;;;;;34.22;26.77;;;10.30;99.90;;;;;;4922325;29;21184;-84
2021/04/22 03:28:21;;;;;;;30.77;25.67;;;10.30;99.90;;;;;;4922651;29;20252;-83
2021/04/22 03:30:47;;;;;;;29.07;23.90;;;10.30;99.90;;;;;;4923027;29;20475;-83
2021/04/22 03:33:14;;;;;;;26.23;23.13;;;10.20;99.90;;;;;;4922095;29;20453;-83
2021/04/22 03:35:41;;;;;;;35.13;24.67;;;10.00;99.90;;;;;;4922736;29;20463;-84
2021/04/22 03:38:08;;;;;;;32.10;24.63;;;10.00;99.90;;;;;;4922631;29;20475;-84
2021/04/22 03:40:35;;;;;;;24.55;22.00;;;10.00;99.90;;;;;;4922196;29;20458;-84
2021/04/22 03:43:01;;;;;;;26.57;22.10;;;9.80;99.90;;;;;;4922540;29;20218;-84
2021/04/22 03:45:28;;;;;;;30.73;23.80;;;9.60;99.90;;;;;;4922386;29;21152;-84
2021/04/22 03:47:54;;;;;;;32.28;25.30;;;9.40;99.90;;;;;;4921989;29;20531;-82
2021/04/22 03:50:21;;;;;;;34.72;24.33;;;9.30;99.90;;;;;;4922522;29;20237;-83
2021/04/22 03:52:48;;;;;;;33.00;26.50;;;9.20;99.90;;;;;;4921887;29;20234;-84
2021/04/22 03:55:16;;;;;;;29.83;25.70;;;9.20;99.90;;;;;;4923053;29;20461;-82
2021/04/22 03:57:43;;;;;;;31.25;26.35;;;9.10;99.90;;;;;;4922957;29;20535;-84
2021/04/22 04:00:15;;;;;;;27.83;22.65;;;9.00;99.90;;;;;;4923105;29;20856;-84
2021/04/22 04:02:41;;;;;;;34.88;25.92;;;8.90;99.90;;;;;;4922513;29;20208;-84
2021/04/22 04:05:09;;;;;;;30.67;27.45;;;8.90;99.90;;;;;;4922941;29;20213;-84
2021/04/22 04:07:36;;;;;;;33.42;27.48;;;8.90;99.90;;;;;;4922083;29;20235;-84
2021/04/22 04:10:04;;;;;;;29.88;26.20;;;8.90;99.90;;;;;;4922630;29;20223;-84
2021/04/22 04:12:30;;;;;;;33.60;28.40;;;9.00;99.90;;;;;;4922526;29;20235;-84
2021/04/22 04:14:57;;;;;;;31.47;26.80;;;9.10;99.90;;;;;;4922484;29;20217;-84
2021/04/22 04:17:24;;;;;;;32.50;26.10;;;9.00;99.90;;;;;;4921626;29;20482;-84
2021/04/22 04:19:50;;;;;;;34.92;26.90;;;9.00;99.90;;;;;;4922125;29;20460;-84
2021/04/22 04:22:17;;;;;;;37.35;27.15;;;8.80;99.90;;;;;;4922216;29;20229;-83
2021/04/22 04:24:43;;;;;;;32.80;26.15;;;8.60;99.90;;;;;;4924974;29;20222;-84
2021/04/22 04:27:09;;;;;;;30.00;25.20;;;8.60;99.90;;;;;;4925942;29;20243;-83
2021/04/22 04:29:35;;;;;;;34.40;27.35;;;8.60;99.90;;;;;;4923804;29;20229;-84
2021/04/22 04:32:03;;;;;;;33.45;25.75;;;8.50;99.90;;;;;;4924327;29;20282;-83
2021/04/22 04:34:29;;;;;;;32.70;24.55;;;8.40;99.90;;;;;;4923729;29;20210;-84
2021/04/22 04:36:56;;;;;;;35.28;24.90;;;8.40;99.90;;;;;;4933958;29;20233;-81
2021/04/22 04:39:23;;;;;;;29.67;24.65;;;8.30;99.90;;;;;;4936216;29;20588;-82
2021/04/22 04:41:49;;;;;;;30.80;25.92;;;8.30;99.90;;;;;;4937298;29;20214;-82
2021/04/22 04:44:15;;;;;;;23.85;21.15;;;8.10;99.90;;;;;;4931203;29;20684;-84
2021/04/22 04:46:42;;;;;;;28.92;24.58;;;8.20;99.90;;;;;;4923389;29;20301;-86
2021/04/22 04:49:09;;;;;;;32.28;23.60;;;8.20;99.90;;;;;;4923750;29;20234;-86
2021/04/22 04:51:35;;;;;;;33.92;21.60;;;8.20;99.90;;;;;;4923250;29;20226;-86
2021/04/22 04:54:03;;;;;;;31.88;24.77;;;8.10;99.90;;;;;;4922447;29;20204;-84
2021/04/22 04:56:32;;;;;;;28.00;23.83;;;8.10;99.90;;;;;;4922585;29;20713;-86
2021/04/22 04:58:59;;;;;;;27.73;22.40;;;8.20;99.90;;;;;;4922576;29;20238;-86
2021/04/22 05:01:25;;;;;;;30.92;23.77;;;8.20;99.90;;;;;;4922170;29;20245;-86
2021/04/22 05:03:52;;;;;;;32.10;25.52;;;8.10;99.90;;;;;;4922314;29;20199;-86
2021/04/22 05:06:21;;;;;;;28.08;22.23;;;8.40;99.90;;;;;;4922489;29;20234;-86
2021/04/22 05:08:47;;;;;;;28.70;23.35;;;8.20;99.90;;;;;;4922501;29;20254;-86
2021/04/22 05:11:13;;;;;;;30.70;22.05;;;8.20;99.90;;;;;;4922255;29;20223;-87
2021/04/22 05:13:42;;;;;;;28.38;21.75;;;8.60;99.90;;;;;;4921963;29;20688;-86
2021/04/22 05:16:09;;;;;;;28.17;23.33;;;8.50;99.90;;;;;;4922021;29;20686;-86
2021/04/22 05:18:36;;;;;;;28.15;23.60;;;8.10;99.90;;;;;;4922371;29;20314;-86
2021/04/22 05:21:02;;;;;;;29.25;23.33;;;8.10;99.90;;;;;;4922243;29;20234;-86
2021/04/22 05:23:30;;;;;;;27.05;21.65;;;8.50;99.90;;;;;;4922373;29;20222;-86
2021/04/22 05:25:56;;;;;;;37.08;23.02;;;8.20;99.90;;;;;;4922359;29;20208;-87
2021/04/22 05:28:23;;;;;;;26.02;23.17;;;8.30;99.90;;;;;;4921952;29;20231;-86
2021/04/22 05:30:51;;;;;;;27.60;23.02;;;8.30;99.90;;;;;;4922000;29;20211;-86
2021/04/22 05:33:29;;;;;;;26.05;22.35;;;8.40;99.90;;;;;;4921409;29;20241;-86
2021/04/22 05:35:56;;;;;;;25.65;22.75;;;8.50;99.90;;;;;;4921999;29;20218;-86
2021/04/22 05:38:22;;;;;;;31.67;24.67;;;8.50;99.90;;;;;;4921856;29;20262;-86
2021/04/22 05:40:49;;;;;;;25.40;22.10;;;8.50;99.90;;;;;;4921875;29;20300;-86
2021/04/22 05:43:22;;;;;;;25.58;22.25;;;8.60;99.90;;;;;;4921704;29;20261;-86
2021/04/22 05:45:48;;;;;;;28.70;22.30;;;8.70;99.90;;;;;;4921702;29;20210;-87
2021/04/22 05:48:17;;;;;;;25.10;20.55;;;8.90;99.90;;;;;;4921887;29;20727;-85
2021/04/22 05:50:46;;;;;;;22.23;20.02;;;8.90;99.90;;;;;;4922027;29;20220;-86
2021/04/22 05:53:13;;;;;;;27.40;21.40;;;9.00;99.90;;;;;;4921244;29;20254;-86
2021/04/22 05:55:47;;;;;;;24.58;20.85;;;8.90;99.90;;;;;;4921765;29;20622;-86
2021/04/22 05:58:21;;;;;;;24.98;22.35;;;9.00;99.90;;;;;;4921799;29;20222;-86
2021/04/22 06:01:17;;;;;;;26.00;22.17;;;9.00;99.90;;;;;;4932433;29;20243;-83
2021/04/22 06:03:51;;;;;;;23.40;20.73;;;9.10;99.90;;;;;;4936653;29;20220;-85
2021/04/22 06:06:43;;;;;;;22.52;19.00;;;9.20;99.90;;;;;;4941001;29;20459;-86
2021/04/22 06:12:26;;;;;;;24.63;21.17;;;9.30;99.90;;;;;;4920439;29;20287;-86
2021/04/22 06:18:10;;;;;;;;;;;;;;;;;;;;;
2021/04/22 06:23:33;;;;;;;24.77;19.53;;;9.50;99.90;;;;;;4919144;29;20807;-86
2021/04/22 06:26:23;;;;;;;22.00;19.80;;;9.60;99.90;;;;;;4920607;29;20795;-86
2021/04/22 06:29:08;;;;;;;24.50;19.47;;;9.70;99.90;;;;;;4920310;29;20518;-87
2021/04/22 06:31:56;;;;;;;23.20;20.10;;;9.70;99.90;;;;;;4920469;29;21071;-86
2021/04/22 06:37:52;;;;;;;;;;;;;;;;;;;;;
2021/04/22 06:43:46;;;;;;;21.93;18.37;;;9.80;99.90;;;;;;4903277;29;20642;-86
2021/04/22 06:49:26;;;;;;;26.83;20.07;;;9.80;99.90;;;;;;4893556;29;20493;-85
2021/04/22 06:52:05;;;;;;;24.03;21.37;;;9.80;99.90;;;;;;4919491;29;20489;-85
2021/04/22 06:55:21;;;;;;;23.47;18.50;;;10.00;99.90;;;;;;4919674;29;20467;-85
2021/04/22 06:58:02;;;;;;;20.70;18.60;;;9.90;99.90;;;;;;4845108;29;20487;-85
2021/04/22 07:00:37;;;;;;;20.83;17.63;;;10.00;99.90;;;;;;4919555;29;20476;-85
2021/04/22 07:03:08;;;;;;;21.80;17.90;;;10.10;99.90;;;;;;4919417;29;20531;-85
2021/04/22 07:05:43;;;;;;;24.73;18.03;;;10.00;99.90;;;;;;4918884;29;20249;-84
2021/04/22 07:08:11;;;;;;;18.70;16.90;;;10.00;99.90;;;;;;4918853;29;20558;-84
2021/04/22 07:10:38;;;;;;;20.07;16.50;;;10.10;99.90;;;;;;4919250;29;20444;-85
2021/04/22 07:13:05;;;;;;;26.23;16.93;;;10.00;99.90;;;;;;4918081;29;20548;-84
2021/04/22 07:15:31;;;;;;;20.63;17.33;;;10.00;99.90;;;;;;4919037;29;20551;-84
2021/04/22 07:18:01;;;;;;;19.13;15.77;;;10.00;99.90;;;;;;4918985;29;20220;-84
2021/04/22 07:20:27;;;;;;;21.90;17.00;;;10.00;99.90;;;;;;4919122;29;20459;-84
2021/04/22 07:22:59;;;;;;;22.75;17.25;;;9.90;99.90;;;;;;4919096;29;20543;-84
2021/04/22 07:25:33;;;;;;;21.73;17.50;;;10.40;99.90;;;;;;4919742;29;20291;-85
2021/04/22 07:28:04;;;;;;;19.23;17.33;;;10.00;99.90;;;;;;4919879;29;20539;-85
2021/04/22 07:30:30;;;;;;;19.47;17.47;;;10.10;99.90;;;;;;4922965;29;20471;-83
2021/04/22 07:33:04;;;;;;;23.27;16.33;;;10.30;99.90;;;;;;4927861;29;20496;-86
2021/04/22 07:42:49;;;;;;;;;;;;;;;;;;;;;
2021/04/22 07:49:17;;;;;;;19.53;15.50;;;10.40;99.90;;;;;;4811593;29;20496;-87
2021/04/22 07:52:16;;;;;;;17.90;16.00;;;10.40;99.90;;;;;;4855665;29;20484;-86
2021/04/22 08:02:18;;;;;;;;;;;;;;;;;;;;;
2021/04/22 08:15:33;;;;;;;18.20;16.00;;;11.10;99.90;;;;;;4804163;29;20464;-84
2021/04/22 08:18:24;;;;;;;16.10;14.50;;;12.00;99.90;;;;;;4821502;29;20491;-84
2021/04/22 08:21:26;;;;;;;18.93;15.90;;;11.30;99.90;;;;;;4876731;29;20547;-87
2021/04/22 08:24:27;;;;;;;16.50;13.70;;;11.40;99.90;;;;;;4860073;29;20469;-85
2021/04/22 08:47:37;;;;;;;15.73;13.67;;;11.70;99.30;;;;;;4887983;29;20415;-87
2021/04/22 08:50:08;;;;;;;14.20;12.67;;;12.00;98.60;;;;;;4873618;29;20594;-85
2021/04/22 08:55:26;;;;;;;14.00;11.90;;;12.10;97.90;;;;;;4944946;29;20833;-84
2021/04/22 08:57:57;;;;;;;14.10;12.10;;;12.00;97.50;;;;;;4954616;29;21046;-84
2021/04/22 09:00:27;;;;;;;16.13;13.77;;;12.20;97.10;;;;;;4954321;29;20453;-84
2021/04/22 09:03:05;;;;;;;14.23;12.10;;;12.20;97.10;;;;;;4952049;29;20441;-84
2021/04/22 09:05:51;;;;;;;14.90;13.33;;;12.30;96.70;;;;;;4954495;29;20759;-84
2021/04/22 09:08:37;;;;;;;15.50;12.97;;;12.20;96.10;;;;;;4952706;29;20476;-85
2021/04/22 09:11:23;;;;;;;13.80;11.30;;;12.00;96.10;;;;;;4955182;29;20452;-84
2021/04/22 09:13:53;;;;;;;14.17;12.27;;;11.80;95.80;;;;;;4958283;29;20467;-83
2021/04/22 09:16:26;;;;;;;12.90;11.60;;;11.80;96.10;;;;;;4957303;29;20492;-82
2021/04/22 09:18:56;;;;;;;16.23;14.17;;;11.70;96.20;;;;;;4956711;29;20472;-83
2021/04/22 09:21:30;;;;;;;14.20;12.70;;;11.90;96.70;;;;;;4957051;29;20487;-82
2021/04/22 09:27:46;;;;;;;;;;;;;;;;;;;;;
2021/04/22 09:30:33;;;;;;;13.77;12.13;;;12.80;95.10;;;;;;4932348;29;20512;-85
2021/04/22 09:33:06;;;;;;;14.53;12.90;;;12.60;94.30;;;;;;4957487;29;20488;-85
2021/04/22 09:36:18;;;;;;;12.80;11.60;;;12.60;94.30;;;;;;4956967;29;20476;-86
2021/04/22 09:38:57;;;;;;;12.70;11.40;;;12.30;94.30;;;;;;4956668;29;20527;-84
2021/04/22 09:41:27;;;;;;;14.37;12.97;;;12.00;94.60;;;;;;4950955;29;21017;-84
2021/04/22 09:44:17;;;;;;;13.73;12.23;;;12.00;94.90;;;;;;4953652;29;20492;-86
2021/04/22 09:47:31;;;;;;;11.20;10.10;;;12.40;95.40;;;;;;4931971;29;20489;-87
2021/04/22 09:53:24;;;;;;;11.87;10.77;;;12.40;93.50;;;;;;4951697;29;20496;-83
2021/04/22 09:56:38;;;;;;;14.03;11.73;;;12.40;93.50;;;;;;4890696;29;20468;-85
2021/04/22 09:59:18;;;;;;;15.73;10.73;;;12.40;93.20;;;;;;4955312;29;20903;-84
2021/04/22 10:05:41;;;;;;;11.80;10.40;;;12.70;94.00;;;;;;4939221;29;20468;-84
2021/04/22 10:08:30;;;;;;;10.07;9.17;;;12.90;92.70;;;;;;4920127;29;20482;-83
2021/04/22 10:11:42;;;;;;;9.70;8.80;;;12.90;92.10;;;;;;4954368;29;20544;-83
2021/04/22 10:14:08;;;;;;;12.03;8.60;;;13.10;90.60;;;;;;4950484;29;20469;-84
2021/04/22 10:16:36;;;;;;;12.17;9.10;;;13.00;91.30;;;;;;4948975;29;20545;-84
2021/04/22 10:19:26;;;;;;;13.20;9.20;;;13.10;90.10;;;;;;4954970;29;20907;-85
2021/04/22 10:21:57;;;;;;;11.70;8.20;;;13.30;89.60;;;;;;4954137;29;20454;-84
2021/04/22 10:24:33;;;;;;;9.63;8.50;;;13.40;89.80;;;;;;4954487;29;20465;-85
2021/04/22 10:27:29;;;;;;;8.70;7.40;;;13.40;88.30;;;;;;4953878;29;20445;-83
2021/04/22 10:29:58;;;;;;;8.87;7.50;;;13.60;88.20;;;;;;4944829;29;20488;-83
2021/04/22 10:32:28;;;;;;;12.27;8.43;;;13.70;86.80;;;;;;4934777;29;20481;-84
2021/04/22 10:34:57;;;;;;;9.53;7.93;;;13.90;87.90;;;;;;4928510;29;20455;-84
2021/04/22 10:37:33;;;;;;;8.73;6.77;;;14.10;88.30;;;;;;4928937;29;20829;-83
2021/04/22 10:40:24;;;;;;;7.67;6.60;;;14.30;82.60;;;;;;4929860;29;20525;-84
2021/04/22 12:25:11;;;;;;;5.60;4.53;;;22.20;43.40;;;;;;4635619;30;20450;-86
2021/04/22 13:05:14;;;;;;;4.73;3.77;;;22.40;38.30;;;;;;4924514;29;20507;-83
2021/04/22 13:07:42;;;;;;;4.67;3.97;;;22.00;39.50;;;;;;4921936;29;20593;-82
2021/04/22 13:10:24;;;;;;;3.83;3.53;;;21.90;38.00;;;;;;4921906;29;20458;-83
2021/04/22 13:12:58;;;;;;;4.87;3.67;;;21.60;38.00;;;;;;4926464;29;20527;-83
2021/04/22 13:26:32;;;;;;;7.07;2.50;;;22.60;31.30;;;;;;4812821;29;20494;-86
2021/04/22 13:29:09;;;;;;;4.53;4.13;;;21.90;31.10;;;;;;4834900;29;20469;-84
2021/04/22 13:31:36;;;;;;;6.00;2.90;;;21.90;32.30;;;;;;4939744;29;20455;-85
2021/04/22 13:34:07;;;;;;;2.97;2.60;;;22.00;31.40;;;;;;4939969;29;20494;-84
2021/04/22 13:36:45;;;;;;;4.33;3.27;;;22.20;30.50;;;;;;4939719;29;20443;-84
2021/04/22 13:39:13;;;;;;;4.43;2.70;;;22.70;32.10;;;;;;4939181;29;20488;-84
2021/04/22 13:41:40;;;;;;;4.90;2.90;;;23.20;30.30;;;;;;4939046;29;20448;-85
2021/04/22 13:44:34;;;;;;;4.53;2.40;;;23.40;31.20;;;;;;4940328;29;20462;-84
2021/04/22 13:47:05;;;;;;;4.13;2.63;;;23.60;31.10;;;;;;4934383;29;20455;-84
2021/04/22 13:53:11;;;;;;;5.17;2.77;;;24.00;30.80;;;;;;4918975;29;20483;-85
2021/04/22 13:55:57;;;;;;;2.87;2.57;;;23.90;31.40;;;;;;4845194;29;20625;-85
2021/04/22 13:58:31;;;;;;;3.57;2.93;;;24.30;29.80;;;;;;4916380;29;20553;-84
2021/04/22 14:01:44;;;;;;;;;;;;;;;;;;;;;
2021/04/22 14:15:16;;;;;;;;;;;;;;;;;;;;;
2021/04/22 14:21:05;;;;;;;5.00;3.70;;;24.20;29.20;;;;;;4941480;29;20516;-86
2021/04/22 14:23:39;;;;;;;4.97;3.10;;;24.10;28.60;;;;;;4942830;29;20457;-84
2021/04/22 14:26:19;;;;;;;5.10;3.03;;;23.70;29.30;;;;;;4945964;29;20473;-85
2021/04/22 14:28:51;;;;;;;3.40;3.10;;;23.60;29.60;;;;;;4939085;29;20462;-84
2021/04/22 14:31:47;;;;;;;5.00;3.73;;;23.80;29.90;;;;;;4939513;29;20473;-86
2021/04/22 14:53:33;;;;;;;3.53;2.90;;;24.80;28.10;;;;;;5106790;23;20461;-81
2021/04/22 14:59:13;;;;;;;;;;;;;;;;;;;;;
2021/04/22 15:05:45;;;;;;;;;;;;;;;;;;;;;
2021/04/22 15:08:18;;;;;;;6.37;3.10;;;23.90;27.10;;;;;;4862148;29;20481;-84
2021/04/22 15:11:14;;;;;;;4.80;3.17;;;23.30;27.20;;;;;;4887076;29;21023;-82
2021/04/22 15:13:52;;;;;;;3.70;2.40;;;23.20;26.90;;;;;;4937500;29;20492;-83
2021/04/22 15:19:50;;;;;;;4.53;2.50;;;23.20;26.50;;;;;;4938969;29;20460;-83
2021/04/22 16:00:56;;;;;;;;;;;;;;;;;;;;;
